Time;durP1;ratioP1;P1;durP2;ratioP2;P2;SDS_P1;SDS_P2;PMS_P1;PMS_P2;Temp;Humidity;BMP_temperature;BMP_pressure;BME280_temperature;BME280_humidity;BME280_pressure;Samples;Min_cycle;Max_cycle;Signal;HPM_P1;HPM_P2
2022/12/14 00:02:00;;;;;;;1.43;1.33;;;;;;;;;;4921100;29;20103;-75
2022/12/14 00:04:26;;;;;;;1.10;1.10;;;;;;;;;;4920028;29;20414;-74
2022/12/14 00:06:51;;;;;;;1.40;1.30;;;;;;;;;;4936748;29;20082;-75
2022/12/14 00:09:20;;;;;;;1.27;1.27;;;;;;;;;;4920757;29;20046;-74
2022/12/14 00:11:51;;;;;;;1.13;1.13;;;;;;;;;;4936890;29;20034;-74
2022/12/14 00:14:17;;;;;;;0.57;0.57;;;;;;;;;;4952845;28;20133;-73
2022/12/14 00:16:43;;;;;;;1.27;1.00;;;;;;;;;;4920957;29;20142;-74
2022/12/14 00:19:09;;;;;;;1.43;1.33;;;;;;;;;;4920267;29;20046;-73
2022/12/14 00:21:35;;;;;;;1.07;0.90;;;;;;;;;;4920876;29;20113;-74
2022/12/14 00:24:01;;;;;;;1.77;1.30;;;;;;;;;;4920138;29;20434;-74
2022/12/14 00:26:29;;;;;;;1.37;1.27;;;;;;;;;;4922694;29;20090;-74
2022/12/14 00:28:57;;;;;;;0.83;0.83;;;;;;;;;;4923153;29;20046;-74
2022/12/14 00:31:23;;;;;;;2.03;1.83;;;;;;;;;;4938367;29;20031;-75
2022/12/14 00:33:52;;;;;;;0.90;0.90;;;;;;;;;;4922801;29;20484;-75
2022/12/14 00:36:18;;;;;;;1.03;0.93;;;;;;;;;;4921973;29;20110;-74
2022/12/14 00:38:43;;;;;;;1.50;1.20;;;;;;;;;;4923424;29;20035;-74
2022/12/14 00:41:10;;;;;;;1.33;1.10;;;;;;;;;;4922434;29;20051;-75
2022/12/14 00:43:36;;;;;;;0.80;0.80;;;;;;;;;;4936406;29;20032;-74
2022/12/14 00:46:04;;;;;;;0.60;0.60;;;;;;;;;;4920259;29;20075;-74
2022/12/14 00:48:30;;;;;;;1.03;1.00;;;;;;;;;;4920431;29;20099;-75
2022/12/14 00:50:57;;;;;;;2.10;1.50;;;;;;;;;;4919042;29;20043;-74
2022/12/14 00:53:23;;;;;;;1.70;1.13;;;;;;;;;;4918773;29;20050;-75
2022/12/14 00:55:49;;;;;;;1.10;1.10;;;;;;;;;;4934252;29;20054;-73
2022/12/14 00:58:17;;;;;;;1.77;1.00;;;;;;;;;;4917430;29;20031;-74
2022/12/14 01:00:43;;;;;;;3.60;2.40;;;;;;;;;;4933428;29;20093;-74
2022/12/14 01:03:10;;;;;;;0.80;0.80;;;;;;;;;;4921421;29;20564;-74
2022/12/14 01:05:35;;;;;;;0.93;0.93;;;;;;;;;;4938277;29;20130;-75
2022/12/14 01:08:01;;;;;;;1.30;1.20;;;;;;;;;;4924390;29;20151;-73
2022/12/14 01:10:27;;;;;;;1.47;1.20;;;;;;;;;;4923951;29;20125;-74
2022/12/14 01:12:53;;;;;;;2.83;1.70;;;;;;;;;;4924137;29;20035;-73
2022/12/14 01:15:18;;;;;;;1.83;1.30;;;;;;;;;;4939826;29;20031;-73
2022/12/14 01:17:44;;;;;;;0.83;0.83;;;;;;;;;;4924040;29;20086;-74
2022/12/14 01:20:11;;;;;;;0.90;0.90;;;;;;;;;;4924249;29;20039;-73
2022/12/14 01:22:37;;;;;;;2.50;1.43;;;;;;;;;;4923871;29;20035;-74
2022/12/14 01:25:03;;;;;;;0.83;0.83;;;;;;;;;;4923970;29;20042;-75
2022/12/14 01:27:29;;;;;;;0.70;0.70;;;;;;;;;;4939715;29;20050;-75
2022/12/14 01:29:54;;;;;;;2.10;1.70;;;;;;;;;;4939355;29;20039;-74
2022/12/14 01:32:20;;;;;;;3.13;2.13;;;;;;;;;;4939832;29;20093;-74
2022/12/14 01:34:49;;;;;;;2.03;1.40;;;;;;;;;;4924147;29;20043;-75
2022/12/14 01:37:15;;;;;;;2.17;1.37;;;;;;;;;;4939367;29;20091;-74
2022/12/14 01:39:40;;;;;;;0.83;0.83;;;;;;;;;;4923476;29;20063;-75
2022/12/14 01:42:13;;;;;;;0.70;0.70;;;;;;;;;;4923473;29;20039;-74
2022/12/14 01:44:39;;;;;;;5.87;3.10;;;;;;;;;;4923567;29;20054;-74
2022/12/14 01:47:25;;;;;;;1.27;1.03;;;;;;;;;;4923449;29;20039;-74
2022/12/14 01:49:56;;;;;;;0.83;0.83;;;;;;;;;;4938518;29;20504;-72
2022/12/14 01:52:25;;;;;;;1.80;1.60;;;;;;;;;;4923178;29;20047;-74
2022/12/14 01:54:57;;;;;;;0.80;0.80;;;;;;;;;;4923256;29;20129;-74
2022/12/14 01:57:25;;;;;;;0.50;0.50;;;;;;;;;;4923035;29;20047;-73
2022/12/14 01:59:51;;;;;;;2.73;1.00;;;;;;;;;;4923154;29;20042;-72
2022/12/14 02:02:17;;;;;;;1.43;0.90;;;;;;;;;;4923440;29;20035;-74
2022/12/14 02:04:45;;;;;;;0.70;0.70;;;;;;;;;;4922990;29;20134;-75
2022/12/14 02:07:11;;;;;;;0.60;0.60;;;;;;;;;;4938703;29;20071;-75
2022/12/14 02:09:38;;;;;;;0.60;0.60;;;;;;;;;;4938787;29;20058;-75
2022/12/14 02:12:16;;;;;;;0.70;0.70;;;;;;;;;;4922695;28;20072;-76
2022/12/14 02:14:43;;;;;;;0.50;0.50;;;;;;;;;;4922620;29;20043;-74
2022/12/14 02:17:11;;;;;;;0.60;0.60;;;;;;;;;;4922599;29;20098;-75
2022/12/14 02:19:37;;;;;;;1.97;1.33;;;;;;;;;;4922738;29;20035;-75
2022/12/14 02:22:25;;;;;;;4.50;2.37;;;;;;;;;;4924527;29;20378;-75
2022/12/14 02:24:57;;;;;;;0.70;0.70;;;;;;;;;;4938679;29;20039;-75
2022/12/14 02:27:26;;;;;;;0.97;0.87;;;;;;;;;;4922500;29;20486;-73
2022/12/14 02:29:57;;;;;;;0.60;0.60;;;;;;;;;;4938818;29;20085;-74
2022/12/14 02:32:52;;;;;;;3.27;1.87;;;;;;;;;;4938438;29;20058;-72
2022/12/14 02:35:34;;;;;;;0.70;0.70;;;;;;;;;;4929813;29;20051;-74
2022/12/14 02:38:06;;;;;;;2.07;1.73;;;;;;;;;;4922229;29;20039;-74
2022/12/14 02:40:44;;;;;;;1.43;1.10;;;;;;;;;;4922051;29;20055;-73
2022/12/14 02:43:09;;;;;;;0.77;0.77;;;;;;;;;;4922288;29;20043;-74
2022/12/14 02:45:38;;;;;;;0.50;0.50;;;;;;;;;;4922269;29;20481;-74
2022/12/14 02:48:15;;;;;;;0.60;0.60;;;;;;;;;;4922054;29;20363;-74
2022/12/14 02:50:52;;;;;;;0.50;0.50;;;;;;;;;;4937970;29;20042;-75
2022/12/14 02:53:35;;;;;;;0.57;0.57;;;;;;;;;;4922080;29;20043;-74
2022/12/14 02:56:02;;;;;;;0.77;0.77;;;;;;;;;;4937981;29;20139;-74
2022/12/14 02:58:39;;;;;;;0.73;0.67;;;;;;;;;;4922045;29;20031;-75
2022/12/14 03:01:08;;;;;;;0.53;0.53;;;;;;;;;;4921892;29;20087;-74
2022/12/14 03:03:34;;;;;;;0.77;0.77;;;;;;;;;;4953845;28;20039;-75
2022/12/14 03:06:01;;;;;;;0.73;0.63;;;;;;;;;;4922042;29;20043;-74
2022/12/14 03:08:30;;;;;;;0.60;0.60;;;;;;;;;;4922299;29;20031;-75
2022/12/14 03:11:00;;;;;;;0.60;0.60;;;;;;;;;;4928663;29;20045;-73
2022/12/14 03:13:32;;;;;;;0.60;0.60;;;;;;;;;;4930461;29;20042;-74
2022/12/14 03:16:10;;;;;;;0.60;0.60;;;;;;;;;;4946138;29;20058;-74
2022/12/14 03:18:56;;;;;;;1.10;0.77;;;;;;;;;;4928109;29;20047;-73
2022/12/14 03:21:25;;;;;;;0.50;0.50;;;;;;;;;;4942962;29;20050;-74
2022/12/14 03:23:54;;;;;;;2.87;2.30;;;;;;;;;;4945859;29;20039;-74
2022/12/14 03:26:34;;;;;;;0.60;0.60;;;;;;;;;;4945593;29;20047;-75
2022/12/14 03:29:03;;;;;;;0.52;0.52;;;;;;;;;;4930272;29;20045;-75
2022/12/14 03:31:38;;;;;;;0.80;0.80;;;;;;;;;;4930297;29;20039;-73
2022/12/14 03:34:05;;;;;;;0.50;0.50;;;;;;;;;;4939942;29;20065;-74
2022/12/14 03:36:34;;;;;;;0.50;0.50;;;;;;;;;;4921438;29;20043;-73
2022/12/14 03:39:03;;;;;;;0.50;0.50;;;;;;;;;;4921470;29;20032;-74
2022/12/14 03:41:28;;;;;;;0.50;0.50;;;;;;;;;;4952622;29;20074;-73
2022/12/14 03:44:13;;;;;;;0.70;0.70;;;;;;;;;;4953533;29;20043;-74
2022/12/14 03:46:38;;;;;;;0.60;0.60;;;;;;;;;;4921296;29;20041;-74
2022/12/14 03:49:19;;;;;;;0.50;0.50;;;;;;;;;;4936787;29;20549;-74
2022/12/14 03:51:53;;;;;;;1.00;1.00;;;;;;;;;;4952948;29;20122;-74
2022/12/14 03:54:45;;;;;;;1.70;0.93;;;;;;;;;;4920835;29;20046;-74
2022/12/14 03:57:19;;;;;;;0.70;0.70;;;;;;;;;;4944305;29;20106;-74
2022/12/14 03:59:49;;;;;;;1.57;1.30;;;;;;;;;;4920333;29;20031;-72
2022/12/14 04:02:20;;;;;;;0.50;0.50;;;;;;;;;;4936452;29;20054;-72
2022/12/14 04:04:55;;;;;;;2.77;1.70;;;;;;;;;;4936536;29;20059;-73
2022/12/14 04:07:33;;;;;;;2.47;1.00;;;;;;;;;;4920984;29;20126;-73
2022/12/14 04:18:55;;;;;;;0.90;0.90;;;;;;;;;;4936608;29;20039;-72
2022/12/14 04:21:18;;;;;;;0.73;0.73;;;;;;;;;;4955936;29;20035;-74
2022/12/14 04:26:39;;;;;;;0.70;0.70;;;;;;;;;;4936593;29;20054;-68
2022/12/14 04:31:59;;;;;;;0.50;0.50;;;;;;;;;;4936522;29;20122;-68
2022/12/14 04:34:26;;;;;;;0.50;0.50;;;;;;;;;;4936679;29;20039;-68
2022/12/14 04:36:54;;;;;;;0.80;0.80;;;;;;;;;;4922055;29;20050;-69
2022/12/14 04:39:28;;;;;;;0.50;0.50;;;;;;;;;;4924116;29;20046;-70
2022/12/14 04:41:55;;;;;;;1.23;0.97;;;;;;;;;;4956034;29;20050;-70
2022/12/14 04:44:25;;;;;;;2.00;1.37;;;;;;;;;;4937635;28;20039;-69
2022/12/14 04:46:52;;;;;;;0.50;0.50;;;;;;;;;;4932676;29;20484;-69
2022/12/14 04:49:19;;;;;;;0.50;0.50;;;;;;;;;;4910634;29;20475;-69
2022/12/14 04:51:52;;;;;;;1.93;1.00;;;;;;;;;;4903816;29;20509;-69
2022/12/14 04:54:37;;;;;;;1.10;1.00;;;;;;;;;;4903165;29;20118;-70
2022/12/14 04:57:05;;;;;;;0.90;0.90;;;;;;;;;;4917635;29;20154;-70
2022/12/14 04:59:31;;;;;;;1.10;1.10;;;;;;;;;;4906393;29;20043;-69
2022/12/14 05:02:16;;;;;;;1.40;1.23;;;;;;;;;;4934056;29;20035;-69
2022/12/14 05:04:54;;;;;;;0.50;0.50;;;;;;;;;;4918091;29;20036;-69
2022/12/14 05:07:33;;;;;;;1.57;1.00;;;;;;;;;;4918487;29;20114;-70
2022/12/14 05:10:02;;;;;;;0.87;0.87;;;;;;;;;;4904437;29;20561;-70
2022/12/14 05:12:29;;;;;;;0.50;0.50;;;;;;;;;;4903891;29;20035;-70
2022/12/14 05:15:01;;;;;;;0.67;0.67;;;;;;;;;;4919794;29;20095;-70
2022/12/14 05:17:27;;;;;;;1.33;1.13;;;;;;;;;;4904267;29;20094;-70
2022/12/14 05:19:53;;;;;;;0.50;0.50;;;;;;;;;;4903702;29;20170;-69
2022/12/14 05:22:19;;;;;;;0.50;0.50;;;;;;;;;;4904090;29;20039;-70
2022/12/14 05:24:45;;;;;;;0.67;0.67;;;;;;;;;;4935299;29;20370;-69
2022/12/14 05:27:11;;;;;;;0.60;0.60;;;;;;;;;;4903965;29;20035;-69
2022/12/14 05:29:37;;;;;;;0.60;0.60;;;;;;;;;;4919584;29;20050;-70
2022/12/14 05:32:03;;;;;;;0.97;0.97;;;;;;;;;;4903647;29;20142;-69
2022/12/14 05:34:29;;;;;;;0.90;0.90;;;;;;;;;;4903913;29;20035;-69
2022/12/14 05:36:55;;;;;;;0.50;0.50;;;;;;;;;;4919309;29;20056;-70
2022/12/14 05:39:20;;;;;;;0.40;0.40;;;;;;;;;;4903218;29;20119;-70
2022/12/14 05:41:46;;;;;;;0.60;0.60;;;;;;;;;;4919526;29;20051;-70
2022/12/14 05:44:12;;;;;;;0.50;0.50;;;;;;;;;;4903610;29;20417;-70
2022/12/14 05:46:37;;;;;;;3.40;2.00;;;;;;;;;;4918609;28;20444;-70
2022/12/14 05:49:03;;;;;;;0.57;0.57;;;;;;;;;;4918985;29;20047;-70
2022/12/14 05:51:29;;;;;;;0.47;0.47;;;;;;;;;;4908713;29;20466;-70
2022/12/14 05:53:55;;;;;;;1.17;1.07;;;;;;;;;;4909585;29;20043;-70
2022/12/14 05:56:22;;;;;;;0.60;0.60;;;;;;;;;;4909760;29;20052;-70
2022/12/14 05:58:48;;;;;;;0.50;0.50;;;;;;;;;;4930175;29;20089;-70
2022/12/14 06:01:15;;;;;;;0.50;0.50;;;;;;;;;;4942197;29;20485;-70
2022/12/14 06:03:40;;;;;;;0.80;0.80;;;;;;;;;;4917782;29;20044;-70
2022/12/14 06:06:08;;;;;;;0.50;0.50;;;;;;;;;;4918398;29;20383;-70
2022/12/14 06:08:34;;;;;;;0.40;0.40;;;;;;;;;;4918650;29;20039;-72
2022/12/14 06:11:04;;;;;;;0.50;0.50;;;;;;;;;;4918912;29;20050;-70
2022/12/14 06:13:30;;;;;;;0.80;0.80;;;;;;;;;;4902363;29;20051;-70
2022/12/14 06:16:20;;;;;;;0.60;0.60;;;;;;;;;;4918745;29;20055;-70
2022/12/14 06:18:53;;;;;;;0.80;0.80;;;;;;;;;;4917732;29;20043;-69
2022/12/14 06:21:20;;;;;;;0.50;0.50;;;;;;;;;;4943326;28;20038;-69
2022/12/14 06:23:45;;;;;;;0.60;0.60;;;;;;;;;;4938969;28;20039;-69
2022/12/14 06:26:12;;;;;;;0.83;0.83;;;;;;;;;;4954771;28;20046;-69
2022/12/14 06:28:38;;;;;;;0.83;0.63;;;;;;;;;;4970793;28;20125;-69
2022/12/14 06:31:06;;;;;;;0.50;0.50;;;;;;;;;;4954938;28;20456;-69
2022/12/14 06:33:35;;;;;;;0.50;0.50;;;;;;;;;;4939272;28;20058;-69
2022/12/14 06:36:01;;;;;;;0.50;0.50;;;;;;;;;;4938590;28;20057;-70
2022/12/14 06:38:27;;;;;;;0.50;0.50;;;;;;;;;;4939514;28;20038;-69
2022/12/14 06:40:54;;;;;;;0.50;0.50;;;;;;;;;;4955296;28;20061;-70
2022/12/14 06:43:20;;;;;;;0.57;0.57;;;;;;;;;;4939519;28;20042;-69
2022/12/14 06:45:45;;;;;;;0.50;0.50;;;;;;;;;;4947252;28;20039;-69
2022/12/14 06:48:11;;;;;;;0.50;0.50;;;;;;;;;;4937006;28;20082;-69
2022/12/14 06:50:37;;;;;;;0.50;0.50;;;;;;;;;;4936725;28;20038;-69
2022/12/14 06:53:05;;;;;;;0.40;0.40;;;;;;;;;;4954006;28;20099;-69
2022/12/14 06:55:31;;;;;;;0.50;0.50;;;;;;;;;;4938394;28;20031;-69
2022/12/14 06:57:57;;;;;;;0.50;0.50;;;;;;;;;;4954536;28;20027;-69
2022/12/14 07:00:23;;;;;;;0.50;0.50;;;;;;;;;;4937075;28;20493;-69
2022/12/14 07:02:49;;;;;;;0.50;0.50;;;;;;;;;;4938301;28;20078;-69
2022/12/14 07:05:15;;;;;;;0.50;0.50;;;;;;;;;;4938114;28;20038;-69
2022/12/14 07:07:41;;;;;;;0.50;0.50;;;;;;;;;;4938665;28;20023;-68
2022/12/14 07:10:07;;;;;;;0.50;0.50;;;;;;;;;;4938429;28;20039;-69
2022/12/14 07:12:33;;;;;;;0.63;0.63;;;;;;;;;;4937499;28;20046;-69
2022/12/14 07:14:59;;;;;;;0.50;0.50;;;;;;;;;;4938337;28;20128;-69
2022/12/14 07:17:25;;;;;;;0.47;0.47;;;;;;;;;;4938171;28;20094;-69
2022/12/14 07:19:53;;;;;;;0.47;0.47;;;;;;;;;;4954480;28;20031;-69
2022/12/14 07:22:20;;;;;;;0.40;0.40;;;;;;;;;;4970557;28;20042;-69
2022/12/14 07:24:46;;;;;;;0.60;0.60;;;;;;;;;;4937522;28;20359;-70
2022/12/14 07:27:12;;;;;;;0.50;0.50;;;;;;;;;;4954320;28;20069;-70
2022/12/14 07:29:37;;;;;;;0.50;0.50;;;;;;;;;;4938318;28;20034;-71
2022/12/14 07:32:03;;;;;;;0.50;0.50;;;;;;;;;;4939027;28;20039;-77
2022/12/14 07:34:29;;;;;;;0.50;0.50;;;;;;;;;;4952036;28;20037;-74
2022/12/14 07:36:54;;;;;;;0.50;0.50;;;;;;;;;;4954155;28;20169;-75
2022/12/14 07:39:20;;;;;;;0.50;0.50;;;;;;;;;;4938499;28;20035;-76
2022/12/14 07:41:46;;;;;;;0.47;0.47;;;;;;;;;;4954545;28;20038;-71
2022/12/14 07:44:19;;;;;;;0.53;0.53;;;;;;;;;;4955514;28;20035;-74
2022/12/14 07:46:45;;;;;;;0.60;0.60;;;;;;;;;;4938726;28;20035;-71
2022/12/14 07:49:11;;;;;;;0.60;0.60;;;;;;;;;;4939288;28;20133;-72
2022/12/14 07:51:40;;;;;;;0.50;0.50;;;;;;;;;;4930593;29;20143;-75
2022/12/14 07:54:09;;;;;;;0.57;0.57;;;;;;;;;;4939664;29;20046;-73
2022/12/14 07:56:38;;;;;;;0.50;0.50;;;;;;;;;;4919391;29;20043;-73
2022/12/14 07:59:05;;;;;;;0.63;0.63;;;;;;;;;;4951451;28;20590;-74
2022/12/14 08:01:32;;;;;;;0.57;0.57;;;;;;;;;;4919751;29;20470;-71
2022/12/14 08:04:04;;;;;;;0.50;0.50;;;;;;;;;;4951881;28;20031;-73
2022/12/14 08:06:31;;;;;;;0.60;0.60;;;;;;;;;;4952519;28;20537;-74
2022/12/14 08:08:57;;;;;;;0.40;0.40;;;;;;;;;;4934872;29;20047;-74
2022/12/14 08:11:23;;;;;;;0.47;0.47;;;;;;;;;;4921533;29;20043;-73
2022/12/14 08:13:57;;;;;;;0.60;0.60;;;;;;;;;;4939177;29;20433;-74
2022/12/14 08:16:23;;;;;;;0.50;0.50;;;;;;;;;;4919432;29;20052;-73
2022/12/14 08:18:51;;;;;;;0.50;0.50;;;;;;;;;;4904883;29;20035;-74
2022/12/14 08:21:19;;;;;;;0.50;0.50;;;;;;;;;;4904207;29;20395;-74
2022/12/14 08:23:46;;;;;;;0.50;0.50;;;;;;;;;;4904573;29;20494;-72
2022/12/14 08:26:11;;;;;;;0.50;0.50;;;;;;;;;;4904110;29;20074;-72
2022/12/14 08:28:37;;;;;;;0.50;0.50;;;;;;;;;;4904479;29;20071;-74
2022/12/14 08:31:04;;;;;;;0.50;0.50;;;;;;;;;;4903261;29;20074;-72
2022/12/14 08:33:29;;;;;;;0.60;0.60;;;;;;;;;;4904774;29;20545;-74
2022/12/14 08:35:55;;;;;;;0.40;0.40;;;;;;;;;;4903043;29;20146;-75
2022/12/14 08:38:21;;;;;;;0.63;0.63;;;;;;;;;;4935920;29;20042;-73
2022/12/14 08:40:47;;;;;;;0.70;0.70;;;;;;;;;;4920210;29;20059;-74
2022/12/14 08:43:13;;;;;;;0.60;0.60;;;;;;;;;;4920156;29;20054;-72
2022/12/14 08:45:39;;;;;;;0.50;0.50;;;;;;;;;;4936026;29;20040;-71
2022/12/14 08:48:04;;;;;;;0.50;0.50;;;;;;;;;;4904928;29;20047;-71
2022/12/14 08:50:30;;;;;;;0.50;0.50;;;;;;;;;;4901622;29;20035;-72
2022/12/14 08:52:56;;;;;;;0.50;0.50;;;;;;;;;;4921350;29;20058;-74
2022/12/14 08:55:22;;;;;;;0.80;0.80;;;;;;;;;;4922935;29;20355;-73
2022/12/14 08:57:48;;;;;;;1.23;0.50;;;;;;;;;;4933041;28;20716;-73
2022/12/14 09:00:14;;;;;;;1.63;1.30;;;;;;;;;;4957554;28;20090;-71
2022/12/14 09:02:40;;;;;;;0.40;0.40;;;;;;;;;;4955978;28;20054;-72
2022/12/14 09:05:06;;;;;;;0.80;0.80;;;;;;;;;;4941410;28;20074;-73
2022/12/14 09:07:31;;;;;;;0.60;0.60;;;;;;;;;;4941268;28;20039;-72
2022/12/14 09:09:57;;;;;;;0.60;0.60;;;;;;;;;;4941714;28;20454;-72
2022/12/14 09:12:23;;;;;;;0.50;0.50;;;;;;;;;;4957045;28;20101;-73
2022/12/14 09:14:49;;;;;;;0.67;0.67;;;;;;;;;;4942326;28;20042;-71
2022/12/14 09:17:15;;;;;;;0.70;0.70;;;;;;;;;;4942209;28;20508;-70
2022/12/14 09:19:41;;;;;;;1.80;1.50;;;;;;;;;;4958493;28;20045;-69
2022/12/14 09:22:06;;;;;;;1.27;1.17;;;;;;;;;;4941830;28;20045;-72
2022/12/14 09:24:33;;;;;;;0.70;0.70;;;;;;;;;;4943091;28;20800;-71
2022/12/14 09:26:59;;;;;;;2.40;1.93;;;;;;;;;;4942389;28;20035;-73
2022/12/14 09:29:25;;;;;;;0.70;0.70;;;;;;;;;;4941691;28;20042;-73
2022/12/14 09:31:51;;;;;;;0.60;0.60;;;;;;;;;;4940816;28;20038;-72
2022/12/14 09:34:17;;;;;;;0.50;0.50;;;;;;;;;;4957068;28;20058;-73
2022/12/14 09:36:43;;;;;;;0.60;0.60;;;;;;;;;;4972282;28;20047;-73
2022/12/14 09:39:13;;;;;;;0.90;0.90;;;;;;;;;;4940901;28;20582;-72
2022/12/14 09:41:39;;;;;;;0.63;0.63;;;;;;;;;;4973341;28;20058;-72
2022/12/14 09:44:24;;;;;;;0.80;0.80;;;;;;;;;;4940255;28;20049;-72
2022/12/14 09:47:09;;;;;;;1.97;1.50;;;;;;;;;;4957746;28;20038;-71
2022/12/14 09:49:54;;;;;;;0.70;0.70;;;;;;;;;;4941870;28;20037;-74
2022/12/14 09:52:25;;;;;;;0.50;0.50;;;;;;;;;;4943680;29;20028;-72
2022/12/14 09:54:51;;;;;;;;;;;;;;;;;;4920747;29;20046;-73
2022/12/14 09:57:22;;;;;;;0.80;0.80;;;;;;;;;;4922298;28;19918;-73
2022/12/14 09:59:48;;;;;;;0.50;0.50;;;;;;;;;;4922124;29;20039;-73
2022/12/14 10:02:32;;;;;;;0.60;0.60;;;;;;;;;;4937986;29;20035;-73
2022/12/14 10:05:17;;;;;;;0.60;0.60;;;;;;;;;;4937736;29;20045;-73
2022/12/14 10:07:51;;;;;;;0.83;0.83;;;;;;;;;;4936241;29;20824;-72
2022/12/14 10:10:26;;;;;;;0.60;0.60;;;;;;;;;;4917842;29;20073;-72
2022/12/14 10:13:03;;;;;;;0.60;0.60;;;;;;;;;;4917309;29;20471;-73
2022/12/14 10:15:42;;;;;;;0.80;0.80;;;;;;;;;;4941212;29;20038;-71
2022/12/14 10:18:13;;;;;;;0.80;0.80;;;;;;;;;;4918014;29;20482;-72
2022/12/14 10:20:51;;;;;;;1.40;1.10;;;;;;;;;;4918338;29;20118;-73
2022/12/14 10:23:19;;;;;;;0.70;0.70;;;;;;;;;;4918179;29;20486;-72
2022/12/14 10:25:47;;;;;;;0.70;0.70;;;;;;;;;;4900591;29;20054;-73
2022/12/14 10:28:16;;;;;;;1.87;1.27;;;;;;;;;;4900220;29;20055;-74
2022/12/14 10:30:42;;;;;;;0.77;0.77;;;;;;;;;;4916522;29;20043;-73
2022/12/14 10:33:20;;;;;;;0.60;0.60;;;;;;;;;;4902310;29;20031;-75
2022/12/14 10:35:54;;;;;;;0.70;0.70;;;;;;;;;;4932330;29;20541;-74
2022/12/14 10:38:19;;;;;;;0.60;0.60;;;;;;;;;;4918012;29;20434;-74
2022/12/14 10:40:49;;;;;;;0.80;0.80;;;;;;;;;;4917920;29;20154;-74
2022/12/14 10:43:33;;;;;;;0.70;0.70;;;;;;;;;;4934225;29;20031;-74
2022/12/14 10:46:11;;;;;;;0.70;0.70;;;;;;;;;;4902193;29;20078;-74
2022/12/14 10:48:51;;;;;;;1.13;1.03;;;;;;;;;;4918093;29;20044;-74
2022/12/14 10:51:17;;;;;;;0.50;0.50;;;;;;;;;;4934296;29;20067;-75
2022/12/14 10:53:46;;;;;;;0.70;0.70;;;;;;;;;;4902497;29;20493;-74
2022/12/14 10:56:32;;;;;;;0.70;0.70;;;;;;;;;;4918033;29;20035;-74
2022/12/14 10:59:16;;;;;;;0.53;0.53;;;;;;;;;;4917410;29;20573;-74
2022/12/14 11:01:44;;;;;;;0.80;0.70;;;;;;;;;;4917654;29;20035;-74
2022/12/14 11:04:31;;;;;;;2.03;0.97;;;;;;;;;;4933628;29;20031;-74
2022/12/14 11:06:58;;;;;;;0.70;0.70;;;;;;;;;;4904001;29;20484;-74
2022/12/14 11:09:25;;;;;;;0.93;0.93;;;;;;;;;;4947629;29;20126;-72
2022/12/14 11:12:14;;;;;;;0.90;0.90;;;;;;;;;;4949730;28;20038;-72
2022/12/14 11:14:51;;;;;;;0.80;0.80;;;;;;;;;;4909762;29;20131;-71
2022/12/14 11:17:36;;;;;;;0.80;0.80;;;;;;;;;;4950791;28;20106;-71
2022/12/14 11:20:23;;;;;;;0.60;0.60;;;;;;;;;;4936482;29;20054;-71
2022/12/14 11:22:53;;;;;;;0.60;0.60;;;;;;;;;;4919389;28;20039;-71
2022/12/14 11:25:36;;;;;;;0.60;0.60;;;;;;;;;;4936281;29;20455;-71
2022/12/14 11:28:22;;;;;;;0.77;0.70;;;;;;;;;;4935944;28;20572;-71
2022/12/14 11:30:53;;;;;;;0.60;0.60;;;;;;;;;;4935593;29;20071;-72
2022/12/14 11:33:19;;;;;;;0.68;0.68;;;;;;;;;;4936136;29;20287;-72
2022/12/14 11:35:49;;;;;;;0.67;0.67;;;;;;;;;;4935916;28;20141;-72
2022/12/14 11:38:17;;;;;;;1.30;1.10;;;;;;;;;;4935686;29;20036;-71
2022/12/14 11:40:43;;;;;;;0.60;0.60;;;;;;;;;;4952154;28;20067;-72
2022/12/14 11:43:20;;;;;;;0.60;0.60;;;;;;;;;;4935941;28;20050;-73
2022/12/14 11:45:49;;;;;;;0.60;0.60;;;;;;;;;;4932004;29;20114;-74
2022/12/14 11:48:15;;;;;;;0.60;0.60;;;;;;;;;;4901103;29;20442;-73
2022/12/14 11:50:41;;;;;;;1.33;0.70;;;;;;;;;;4916568;29;20043;-72
2022/12/14 11:53:11;;;;;;;0.50;0.50;;;;;;;;;;4916651;29;20474;-72
2022/12/14 11:55:38;;;;;;;0.77;0.77;;;;;;;;;;4933122;29;20035;-73
2022/12/14 11:58:04;;;;;;;0.80;0.80;;;;;;;;;;4901366;29;20078;-73
2022/12/14 12:00:30;;;;;;;0.70;0.70;;;;;;;;;;4932686;29;20462;-72
2022/12/14 12:03:11;;;;;;;0.60;0.60;;;;;;;;;;4916618;29;20070;-73
2022/12/14 12:05:40;;;;;;;0.55;0.55;;;;;;;;;;4933399;29;20041;-72
2022/12/14 12:08:16;;;;;;;1.30;0.53;;;;;;;;;;4932883;29;20039;-72
2022/12/14 12:10:44;;;;;;;0.60;0.60;;;;;;;;;;4932142;29;20079;-73
2022/12/14 12:13:21;;;;;;;0.50;0.50;;;;;;;;;;4916245;29;20063;-73
2022/12/14 12:15:49;;;;;;;0.70;0.70;;;;;;;;;;4932585;29;20051;-72
2022/12/14 12:18:17;;;;;;;0.57;0.57;;;;;;;;;;4932885;29;20059;-72
2022/12/14 12:20:58;;;;;;;0.50;0.50;;;;;;;;;;4932417;29;20238;-73
2022/12/14 12:23:29;;;;;;;0.50;0.50;;;;;;;;;;4916496;29;20047;-72
2022/12/14 12:25:55;;;;;;;0.57;0.57;;;;;;;;;;4916994;29;20474;-72
2022/12/14 12:28:37;;;;;;;0.60;0.60;;;;;;;;;;4932879;29;20047;-72
2022/12/14 12:31:06;;;;;;;0.57;0.57;;;;;;;;;;4931126;29;20050;-74
2022/12/14 12:33:38;;;;;;;0.60;0.60;;;;;;;;;;4946645;28;20071;-73
2022/12/14 12:36:04;;;;;;;0.63;0.63;;;;;;;;;;4930659;29;20050;-74
2022/12/14 12:38:35;;;;;;;0.50;0.50;;;;;;;;;;4930094;29;20039;-74
2022/12/14 12:41:04;;;;;;;0.60;0.60;;;;;;;;;;4914616;29;20146;-73
2022/12/14 12:43:36;;;;;;;0.63;0.63;;;;;;;;;;4930392;29;20039;-74
2022/12/14 12:46:10;;;;;;;0.50;0.50;;;;;;;;;;4930885;29;20032;-73
2022/12/14 12:48:42;;;;;;;0.50;0.50;;;;;;;;;;4933371;29;20473;-73
2022/12/14 12:51:12;;;;;;;0.60;0.60;;;;;;;;;;4948500;28;20044;-73
2022/12/14 12:53:39;;;;;;;0.60;0.60;;;;;;;;;;4932150;29;20063;-73
2022/12/14 12:56:06;;;;;;;0.70;0.70;;;;;;;;;;4901045;29;20054;-74
2022/12/14 12:58:32;;;;;;;0.50;0.50;;;;;;;;;;4935163;29;20039;-74
2022/12/14 13:01:04;;;;;;;0.57;0.57;;;;;;;;;;4950983;28;20051;-74
2022/12/14 13:03:37;;;;;;;0.50;0.50;;;;;;;;;;4919594;29;20036;-73
2022/12/14 13:06:16;;;;;;;0.50;0.50;;;;;;;;;;4935838;29;20043;-73
2022/12/14 13:08:42;;;;;;;0.67;0.67;;;;;;;;;;4935797;29;20036;-74
2022/12/14 13:11:15;;;;;;;0.60;0.60;;;;;;;;;;4935616;29;20491;-73
2022/12/14 13:13:47;;;;;;;0.63;0.63;;;;;;;;;;4934824;29;20043;-74
2022/12/14 13:16:13;;;;;;;0.50;0.50;;;;;;;;;;4935724;29;20499;-74
2022/12/14 13:18:40;;;;;;;1.33;0.60;;;;;;;;;;4935321;29;20134;-73
2022/12/14 13:21:27;;;;;;;0.50;0.50;;;;;;;;;;4935339;29;20731;-73
2022/12/14 13:23:52;;;;;;;0.60;0.60;;;;;;;;;;4934822;29;20474;-73
2022/12/14 13:26:37;;;;;;;0.60;0.60;;;;;;;;;;4934854;29;20042;-74
2022/12/14 13:29:09;;;;;;;0.60;0.60;;;;;;;;;;4935247;29;20037;-73
2022/12/14 13:31:41;;;;;;;0.60;0.60;;;;;;;;;;4919773;29;20118;-73
2022/12/14 13:34:22;;;;;;;0.70;0.70;;;;;;;;;;4919050;29;20040;-72
2022/12/14 13:37:20;;;;;;;0.50;0.50;;;;;;;;;;4951154;28;20059;-73
2022/12/14 13:39:46;;;;;;;0.60;0.60;;;;;;;;;;4877872;29;20052;-74
2022/12/14 13:42:21;;;;;;;0.73;0.73;;;;;;;;;;4935006;29;20043;-73
2022/12/14 13:45:00;;;;;;;0.60;0.60;;;;;;;;;;4919089;29;20039;-75
2022/12/14 13:47:32;;;;;;;0.60;0.60;;;;;;;;;;4934795;29;20040;-75
2022/12/14 13:50:00;;;;;;;0.60;0.60;;;;;;;;;;4934564;29;20390;-73
2022/12/14 13:52:31;;;;;;;0.80;0.80;;;;;;;;;;4916377;29;20097;-72
2022/12/14 13:54:57;;;;;;;0.60;0.60;;;;;;;;;;4933986;29;20052;-71
2022/12/14 13:57:24;;;;;;;0.60;0.60;;;;;;;;;;4918510;29;20505;-71
2022/12/14 13:59:51;;;;;;;0.60;0.60;;;;;;;;;;4918641;29;20526;-71
2022/12/14 14:02:28;;;;;;;0.60;0.60;;;;;;;;;;4918496;29;20039;-71
2022/12/14 14:05:13;;;;;;;0.60;0.60;;;;;;;;;;4934488;29;20155;-71
2022/12/14 14:08:00;;;;;;;0.60;0.60;;;;;;;;;;4938086;28;20058;-70
2022/12/14 14:10:36;;;;;;;1.37;0.67;;;;;;;;;;4939148;29;20167;-70
2022/12/14 14:13:22;;;;;;;0.50;0.50;;;;;;;;;;4937497;29;20101;-71
2022/12/14 14:15:52;;;;;;;0.63;0.63;;;;;;;;;;4908773;29;20521;-71
2022/12/14 14:18:20;;;;;;;0.60;0.60;;;;;;;;;;4918719;29;20047;-71
2022/12/14 14:21:08;;;;;;;0.60;0.60;;;;;;;;;;4923103;29;20744;-71
2022/12/14 14:23:34;;;;;;;0.60;0.60;;;;;;;;;;4920548;28;20035;-71
2022/12/14 14:26:15;;;;;;;0.70;0.70;;;;;;;;;;4947743;28;20481;-71
2022/12/14 14:28:40;;;;;;;0.60;0.60;;;;;;;;;;4940247;29;20043;-71
2022/12/14 14:31:06;;;;;;;0.73;0.73;;;;;;;;;;4903043;29;20039;-71
2022/12/14 14:33:35;;;;;;;0.70;0.70;;;;;;;;;;4934291;29;20042;-71
2022/12/14 14:36:19;;;;;;;0.60;0.60;;;;;;;;;;4933878;29;20036;-72
2022/12/14 14:38:45;;;;;;;0.70;0.70;;;;;;;;;;4917521;29;20044;-71
2022/12/14 14:41:13;;;;;;;0.67;0.67;;;;;;;;;;4933809;29;20070;-71
2022/12/14 14:43:45;;;;;;;0.80;0.80;;;;;;;;;;4934905;29;20035;-72
2022/12/14 14:46:11;;;;;;;0.70;0.70;;;;;;;;;;4919250;29;20434;-72
2022/12/14 14:48:41;;;;;;;0.70;0.70;;;;;;;;;;4919361;29;20040;-70
2022/12/14 14:51:07;;;;;;;0.60;0.60;;;;;;;;;;4903563;29;20048;-70
2022/12/14 14:53:34;;;;;;;0.50;0.50;;;;;;;;;;4933404;29;20572;-70
2022/12/14 14:56:03;;;;;;;0.70;0.70;;;;;;;;;;4917000;29;20078;-69
2022/12/14 14:58:36;;;;;;;1.43;1.00;;;;;;;;;;4903200;29;20043;-70
2022/12/14 15:01:05;;;;;;;1.13;1.03;;;;;;;;;;4933403;29;20351;-70
2022/12/14 15:03:49;;;;;;;0.63;0.63;;;;;;;;;;4918908;29;20035;-70
2022/12/14 15:06:25;;;;;;;0.70;0.70;;;;;;;;;;4918694;29;20046;-70
2022/12/14 15:09:00;;;;;;;0.80;0.80;;;;;;;;;;4919015;29;20039;-70
2022/12/14 15:11:27;;;;;;;0.70;0.70;;;;;;;;;;4919060;29;20040;-70
2022/12/14 15:13:56;;;;;;;0.60;0.60;;;;;;;;;;4934811;29;20114;-71
2022/12/14 15:16:24;;;;;;;0.70;0.70;;;;;;;;;;4903251;29;20091;-70